Time;durP1;ratioP1;P1;durP2;ratioP2;P2;SDS_P1;SDS_P2;PMS_P1;PMS_P2;Temp;Humidity;BMP_temperature;BMP_pressure;BME280_temperature;BME280_humidity;BME280_pressure;Samples;Min_cycle;Max_cycle;Signal;HPM_P1;HPM_P2
2021/12/21 00:01:46;;;;;;;330.27;27.53;;;-1.10;99.90;;;;;;5078535;28;20228;-59
2021/12/21 00:04:13;;;;;;;166.00;26.67;;;-1.00;99.90;;;;;;5074351;28;20198;-59
2021/12/21 00:06:42;;;;;;;100.03;24.70;;;-1.00;99.90;;;;;;5076681;28;20211;-59
2021/12/21 00:09:09;;;;;;;155.80;26.87;;;-0.90;99.90;;;;;;5081213;28;20632;-59
2021/12/21 00:11:36;;;;;;;211.37;26.37;;;-0.70;99.90;;;;;;5082669;28;20199;-59
2021/12/21 00:14:36;;;;;;;207.03;26.30;;;-0.70;99.90;;;;;;5079194;28;20269;-59
2021/12/21 00:17:30;;;;;;;171.17;22.53;;;-0.80;99.90;;;;;;5077652;28;20290;-59
2021/12/21 00:20:25;;;;;;;165.77;23.97;;;-0.90;99.90;;;;;;5077243;28;20222;-59
2021/12/21 00:25:21;;;;;;;317.67;28.20;;;-1.10;99.90;;;;;;5077612;28;20202;-59
2021/12/21 00:27:51;;;;;;;206.23;24.03;;;-1.10;99.90;;;;;;5078925;28;20226;-59
2021/12/21 00:30:19;;;;;;;194.70;24.47;;;-1.10;99.90;;;;;;5066086;28;20317;-59
2021/12/21 00:32:46;;;;;;;93.73;24.30;;;-1.00;99.90;;;;;;5076495;28;20217;-59
2021/12/21 00:35:13;;;;;;;194.17;24.13;;;-0.90;99.90;;;;;;5075890;28;20194;-59
2021/12/21 00:37:41;;;;;;;169.47;24.00;;;-0.90;99.90;;;;;;5095323;28;20210;-59
2021/12/21 00:40:10;;;;;;;224.67;25.60;;;-1.00;99.90;;;;;;5081119;28;20277;-59
2021/12/21 00:42:37;;;;;;;240.40;28.03;;;-1.10;99.90;;;;;;5091796;28;20290;-59
2021/12/21 00:45:04;;;;;;;241.37;26.77;;;-1.10;99.90;;;;;;5093880;28;20214;-59
2021/12/21 00:47:34;;;;;;;171.10;26.57;;;-1.10;99.90;;;;;;5080070;28;20240;-59
2021/12/21 00:50:03;;;;;;;196.67;26.20;;;-1.10;99.90;;;;;;5077477;28;20550;-59
2021/12/21 00:52:30;;;;;;;187.90;26.27;;;-1.00;99.90;;;;;;5057539;28;20209;-59
2021/12/21 00:54:57;;;;;;;202.90;25.57;;;-1.00;99.90;;;;;;5076268;28;20204;-59
2021/12/21 00:57:24;;;;;;;146.17;25.90;;;-1.10;99.90;;;;;;5080868;28;20206;-59
2021/12/21 00:59:51;;;;;;;169.27;26.93;;;-1.00;99.90;;;;;;5074876;28;20612;-58
2021/12/21 01:02:18;;;;;;;176.77;28.07;;;-1.00;99.90;;;;;;5077970;28;20207;-58
2021/12/21 01:04:48;;;;;;;174.53;28.07;;;-1.10;99.90;;;;;;5080104;28;20305;-58
2021/12/21 01:07:23;;;;;;;153.33;29.60;;;-1.00;99.90;;;;;;5078704;28;20210;-58
2021/12/21 01:18:02;;;;;;;147.73;24.07;;;-1.10;99.90;;;;;;5076934;28;20221;-58
2021/12/21 01:23:29;;;;;;;193.43;23.87;;;-1.00;99.90;;;;;;5081324;28;20224;-58
2021/12/21 01:29:25;;;;;;;226.67;24.50;;;-1.40;99.90;;;;;;5085253;28;20703;-59
2021/12/21 01:36:51;;;;;;;188.33;26.77;;;-1.60;99.90;;;;;;5083269;28;20248;-58
2021/12/21 01:42:03;;;;;;;202.27;26.47;;;-1.50;99.90;;;;;;5084671;28;20206;-58
2021/12/21 01:49:51;;;;;;;166.03;28.17;;;-1.40;99.90;;;;;;5082323;28;20202;-58
2021/12/21 01:52:23;;;;;;;195.47;26.23;;;-1.30;99.90;;;;;;5081292;28;20271;-58
2021/12/21 01:54:51;;;;;;;207.97;24.97;;;-1.30;99.90;;;;;;5084145;28;20229;-58
2021/12/21 01:57:18;;;;;;;175.33;27.23;;;-1.50;99.90;;;;;;5079505;28;20620;-58
2021/12/21 01:59:46;;;;;;;108.83;23.83;;;-1.40;99.90;;;;;;5083644;28;20218;-58
2021/12/21 02:02:17;;;;;;;235.80;25.47;;;-1.40;99.90;;;;;;5075084;28;20234;-58
2021/12/21 02:04:44;;;;;;;319.57;26.60;;;-1.60;99.90;;;;;;5084040;28;20195;-58
2021/12/21 02:07:12;;;;;;;229.77;26.07;;;-1.70;99.90;;;;;;5088102;28;20315;-58
2021/12/21 02:09:40;;;;;;;202.37;24.80;;;-1.70;99.90;;;;;;5085247;28;21013;-58
2021/12/21 02:12:13;;;;;;;172.30;25.13;;;-1.50;99.90;;;;;;5085985;28;20246;-58
2021/12/21 02:14:42;;;;;;;261.50;26.83;;;-1.50;99.90;;;;;;5083501;28;20272;-58
2021/12/21 02:23:06;;;;;;;294.73;29.07;;;-1.70;99.90;;;;;;5083992;28;20297;-58
2021/12/21 02:25:53;;;;;;;219.53;26.10;;;-1.60;99.90;;;;;;5086000;28;20221;-58
2021/12/21 02:30:54;;;;;;;215.57;27.17;;;-1.60;99.90;;;;;;5082751;28;20231;-58
2021/12/21 02:33:23;;;;;;;223.37;29.10;;;-1.50;99.90;;;;;;5098102;28;20271;-58
2021/12/21 02:35:50;;;;;;;118.40;28.33;;;-1.40;99.90;;;;;;5072256;28;20552;-58
2021/12/21 02:38:18;;;;;;;119.57;27.83;;;-1.30;99.90;;;;;;5072741;28;20276;-59
2021/12/21 02:40:46;;;;;;;93.53;29.77;;;-1.20;99.90;;;;;;5085429;28;20241;-58
2021/12/21 02:43:13;;;;;;;91.20;27.63;;;-1.10;99.90;;;;;;5085935;28;20561;-58
2021/12/21 02:45:41;;;;;;;285.90;31.40;;;-1.00;99.90;;;;;;5082081;28;20518;-58
2021/12/21 02:48:09;;;;;;;154.77;25.03;;;-1.20;99.90;;;;;;5082076;28;20297;-58
2021/12/21 02:50:38;;;;;;;159.47;28.63;;;-1.40;99.90;;;;;;5083582;28;20194;-58
2021/12/21 02:53:07;;;;;;;133.93;27.87;;;-1.30;99.90;;;;;;5082107;28;20826;-58
2021/12/21 02:55:35;;;;;;;257.60;28.60;;;-1.30;99.90;;;;;;5083867;28;20194;-58
2021/12/21 02:58:02;;;;;;;204.37;27.87;;;-1.40;99.90;;;;;;5085335;28;20206;-58
2021/12/21 03:00:31;;;;;;;257.53;33.00;;;-1.40;99.90;;;;;;5095333;28;20251;-58
2021/12/21 03:03:06;;;;;;;104.03;27.00;;;-1.40;99.90;;;;;;5077067;28;20250;-58
2021/12/21 03:05:35;;;;;;;198.73;27.07;;;-1.30;99.90;;;;;;5083835;28;20296;-59
2021/12/21 03:10:45;;;;;;;191.57;28.13;;;-1.20;99.90;;;;;;5083510;28;20262;-58
2021/12/21 03:15:58;;;;;;;264.77;31.50;;;-1.30;99.90;;;;;;5081256;28;20186;-58
2021/12/21 03:18:25;;;;;;;165.93;28.33;;;-1.40;99.90;;;;;;5101219;28;20236;-59
2021/12/21 03:20:52;;;;;;;167.73;29.63;;;-1.40;99.90;;;;;;5083258;28;20218;-58
2021/12/21 03:23:19;;;;;;;136.17;27.93;;;-1.50;99.90;;;;;;5077308;28;20198;-58
2021/12/21 03:25:46;;;;;;;301.87;34.40;;;-1.50;99.90;;;;;;5078650;28;20226;-58
2021/12/21 03:28:13;;;;;;;163.73;27.83;;;-1.40;99.90;;;;;;5080438;28;20556;-58
2021/12/21 03:30:40;;;;;;;133.93;29.53;;;-1.40;99.90;;;;;;5081658;28;20284;-59
2021/12/21 03:33:07;;;;;;;123.03;27.47;;;-1.30;99.90;;;;;;5084058;28;20225;-58
2021/12/21 03:35:34;;;;;;;138.47;29.73;;;-1.40;99.90;;;;;;5084814;28;20188;-58
2021/12/21 03:38:01;;;;;;;160.93;28.30;;;-1.40;99.90;;;;;;5080680;28;21915;-58
2021/12/21 03:40:32;;;;;;;128.37;28.60;;;-1.30;99.90;;;;;;5082054;28;20294;-58
2021/12/21 03:43:00;;;;;;;167.10;28.50;;;-1.30;99.90;;;;;;5081077;28;20212;-58
2021/12/21 03:45:35;;;;;;;134.93;26.40;;;-1.40;99.90;;;;;;5080285;28;20243;-58
2021/12/21 03:48:03;;;;;;;214.67;28.93;;;-1.60;99.90;;;;;;5081506;28;20284;-58
2021/12/21 03:50:30;;;;;;;158.00;29.00;;;-1.70;99.90;;;;;;5077198;28;20222;-58
2021/12/21 03:52:57;;;;;;;164.63;27.40;;;-1.60;99.90;;;;;;5082033;28;20259;-58
2021/12/21 03:55:24;;;;;;;265.57;31.37;;;-1.60;99.90;;;;;;5063114;28;20195;-58
2021/12/21 03:57:51;;;;;;;153.07;26.33;;;-1.80;99.90;;;;;;5085235;28;20306;-58
2021/12/21 04:00:18;;;;;;;242.53;30.50;;;-1.80;99.90;;;;;;5081851;28;20309;-58
2021/12/21 04:02:45;;;;;;;218.20;29.50;;;-1.90;99.90;;;;;;5082311;28;20227;-58
2021/12/21 04:05:13;;;;;;;145.83;31.63;;;-1.80;99.90;;;;;;5064880;28;20198;-58
2021/12/21 04:07:41;;;;;;;218.83;32.63;;;-1.70;99.90;;;;;;5082038;28;20214;-59
2021/12/21 04:10:08;;;;;;;171.97;30.20;;;-1.60;99.90;;;;;;5081214;28;20202;-58
2021/12/21 04:12:36;;;;;;;190.23;32.43;;;-1.60;99.90;;;;;;5081357;28;20285;-59
2021/12/21 04:15:04;;;;;;;172.97;31.43;;;-1.60;99.90;;;;;;5081708;28;20193;-58
2021/12/21 04:17:32;;;;;;;197.37;33.23;;;-1.60;99.90;;;;;;5082436;28;20726;-58
2021/12/21 04:19:59;;;;;;;115.60;31.03;;;-1.60;99.90;;;;;;5081600;28;20222;-59
2021/12/21 04:22:28;;;;;;;122.87;30.43;;;-1.40;99.90;;;;;;5083043;28;20204;-58
2021/12/21 04:24:55;;;;;;;205.03;32.20;;;-1.40;99.90;;;;;;5080381;28;20545;-59
2021/12/21 04:27:22;;;;;;;245.67;34.70;;;-1.50;99.90;;;;;;5080753;28;20285;-58
2021/12/21 04:29:49;;;;;;;113.00;32.47;;;-1.70;99.90;;;;;;5078947;28;20238;-59
2021/12/21 04:32:16;;;;;;;84.47;31.87;;;-1.50;99.90;;;;;;5083546;28;20709;-59
2021/12/21 04:34:43;;;;;;;133.77;33.27;;;-1.40;99.90;;;;;;5080323;28;20637;-58
2021/12/21 04:37:12;;;;;;;147.90;32.17;;;-1.20;99.90;;;;;;5080278;28;20263;-59
2021/12/21 04:39:46;;;;;;;154.50;32.10;;;-1.20;99.90;;;;;;5076018;28;22812;-58
2021/12/21 04:42:13;;;;;;;196.90;34.13;;;-1.30;99.90;;;;;;5064478;28;20198;-59
2021/12/21 04:44:40;;;;;;;207.33;34.43;;;-1.40;99.90;;;;;;5064273;28;20226;-58
2021/12/21 04:47:07;;;;;;;165.60;33.37;;;-1.40;99.90;;;;;;5078246;28;20727;-58
2021/12/21 04:49:34;;;;;;;159.10;31.63;;;-1.30;99.90;;;;;;5074778;28;20197;-58
2021/12/21 04:52:01;;;;;;;159.43;31.23;;;-1.20;99.90;;;;;;5079681;28;20191;-58
2021/12/21 04:54:28;;;;;;;222.47;32.40;;;-1.30;99.90;;;;;;5078363;28;20270;-58
2021/12/21 04:56:55;;;;;;;190.13;29.07;;;-1.30;99.90;;;;;;5080162;28;20187;-58
2021/12/21 04:59:25;;;;;;;291.40;32.63;;;-1.40;99.90;;;;;;5081642;28;20194;-58
2021/12/21 05:01:52;;;;;;;224.73;29.83;;;-1.50;1.00;;;;;;5083528;28;20287;-58
2021/12/21 05:04:19;;;;;;;282.63;32.57;;;-1.50;64.10;;;;;;5081599;28;20251;-58
2021/12/21 05:06:51;;;;;;;219.07;30.97;;;-1.50;1.00;;;;;;5081472;28;20653;-58
2021/12/21 05:09:25;;;;;;;151.57;30.80;;;-1.50;1.00;;;;;;5081004;28;20195;-58
2021/12/21 05:12:00;;;;;;;104.37;30.43;;;-1.50;1.00;;;;;;5080819;28;20604;-58
2021/12/21 05:14:28;;;;;;;203.97;33.57;;;-1.40;1.00;;;;;;5078517;28;20198;-58
2021/12/21 05:16:55;;;;;;;197.23;29.90;;;-1.30;1.30;;;;;;5078992;28;20661;-59
2021/12/21 05:19:22;;;;;;;192.50;29.53;;;-1.40;1.00;;;;;;5081474;28;20561;-58
2021/12/21 05:21:49;;;;;;;160.77;28.93;;;-1.40;1.00;;;;;;5085029;28;20214;-58
2021/12/21 05:24:16;;;;;;;245.07;32.50;;;-1.50;99.90;;;;;;5080055;28;20273;-58
2021/12/21 05:26:43;;;;;;;233.67;30.67;;;-1.60;1.00;;;;;;5076889;28;20574;-58
2021/12/21 05:29:11;;;;;;;212.50;30.43;;;-1.60;99.90;;;;;;5078275;28;20315;-58
2021/12/21 05:31:38;;;;;;;185.23;30.50;;;-1.50;1.00;;;;;;5077847;28;20283;-58
2021/12/21 05:34:05;;;;;;;203.30;27.00;;;-1.60;99.90;;;;;;5064144;28;20190;-58
2021/12/21 05:36:32;;;;;;;227.97;29.30;;;-1.70;1.00;;;;;;5081329;28;20202;-58
2021/12/21 05:39:03;;;;;;;98.70;32.77;;;-1.70;99.90;;;;;;5086807;28;20199;-58
2021/12/21 05:41:49;;;;;;;212.57;29.20;;;-1.50;1.00;;;;;;5076751;28;20202;-59
2021/12/21 05:44:17;;;;;;;235.50;28.80;;;-1.60;1.00;;;;;;5075302;28;20202;-58
2021/12/21 05:46:44;;;;;;;74.03;28.93;;;-1.80;99.90;;;;;;5070742;28;20341;-58
2021/12/21 05:49:11;;;;;;;155.53;32.20;;;-1.60;99.90;;;;;;5066274;28;20206;-58
2021/12/21 05:51:40;;;;;;;300.80;34.80;;;-1.40;99.90;;;;;;5066346;28;20290;-58
2021/12/21 05:54:07;;;;;;;207.77;30.63;;;-1.50;99.90;;;;;;5071041;28;20293;-58
2021/12/21 05:56:34;;;;;;;272.20;31.30;;;-1.50;99.90;;;;;;5070608;28;20195;-58
2021/12/21 05:59:02;;;;;;;102.27;29.80;;;-1.50;1.00;;;;;;5075519;28;21207;-58
2021/12/21 06:01:32;;;;;;;149.93;31.07;;;-1.50;1.00;;;;;;5076760;28;20202;-58
2021/12/21 06:04:01;;;;;;;118.80;31.97;;;-1.40;99.90;;;;;;5083035;28;20590;-59
2021/12/21 06:06:31;;;;;;;230.63;34.43;;;-1.20;1.00;;;;;;5084883;28;20194;-59
2021/12/21 06:09:01;;;;;;;128.87;31.33;;;-1.20;1.00;;;;;;5084372;28;20210;-58
2021/12/21 06:11:29;;;;;;;139.23;31.77;;;-1.10;1.00;;;;;;5085861;28;20186;-58
2021/12/21 06:26:56;;;;;;;170.20;28.40;;;-1.00;1.00;;;;;;5084219;28;20214;-59
2021/12/21 06:29:23;;;;;;;190.70;29.80;;;-1.20;1.00;;;;;;5085044;28;20281;-59
2021/12/21 06:31:50;;;;;;;276.37;32.47;;;-1.30;99.90;;;;;;5082620;28;20673;-59
2021/12/21 06:34:18;;;;;;;111.00;33.70;;;-1.30;99.90;;;;;;5081912;28;20915;-58
2021/12/21 06:36:45;;;;;;;141.33;28.23;;;-1.40;1.00;;;;;;5081522;28;20205;-59
2021/12/21 06:39:12;;;;;;;195.23;31.30;;;-1.50;1.00;;;;;;5065384;28;20224;-59
2021/12/21 06:41:40;;;;;;;231.90;33.77;;;-1.60;1.00;;;;;;5084826;28;20281;-58
2021/12/21 06:44:09;;;;;;;190.70;37.17;;;-1.60;52.30;;;;;;5082171;28;20194;-58
2021/12/21 06:52:06;;;;;;;224.23;34.17;;;-1.60;99.90;;;;;;5081196;28;20248;-58
2021/12/21 06:54:34;;;;;;;278.50;30.10;;;-1.70;99.90;;;;;;5072861;28;20220;-58
2021/12/21 06:57:01;;;;;;;216.20;30.67;;;-1.90;1.00;;;;;;5080364;28;20223;-58
2021/12/21 06:59:28;;;;;;;264.10;31.63;;;-2.00;99.90;;;;;;5098879;28;20247;-58
2021/12/21 07:01:55;;;;;;;221.60;28.77;;;-2.00;1.00;;;;;;5077452;28;20190;-59
2021/12/21 07:04:22;;;;;;;199.53;31.70;;;-2.10;99.90;;;;;;5079367;28;20202;-58
2021/12/21 07:06:51;;;;;;;197.93;33.23;;;-2.00;19.70;;;;;;5080258;28;20209;-59
2021/12/21 07:11:54;;;;;;;187.63;34.83;;;-1.80;54.00;;;;;;5083991;28;20198;-59
2021/12/21 07:19:53;;;;;;;257.33;31.27;;;-1.90;1.00;;;;;;5085075;28;20251;-59
2021/12/21 07:22:23;;;;;;;179.10;28.27;;;-1.90;1.00;;;;;;5083942;28;20217;-58
2021/12/21 07:24:50;;;;;;;145.97;29.53;;;-2.00;1.00;;;;;;5084656;28;20221;-58
2021/12/21 07:27:17;;;;;;;189.10;30.73;;;-1.90;99.90;;;;;;5084691;28;20254;-59
2021/12/21 07:29:44;;;;;;;170.23;28.80;;;-1.90;99.90;;;;;;5074988;28;20248;-59
2021/12/21 07:32:11;;;;;;;178.47;28.97;;;-2.00;99.90;;;;;;5083808;28;20191;-59
2021/12/21 07:34:38;;;;;;;212.47;29.83;;;-2.20;1.00;;;;;;5084740;28;20225;-59
2021/12/21 07:37:09;;;;;;;150.90;25.60;;;-2.20;1.00;;;;;;5082998;28;20186;-59
2021/12/21 07:39:37;;;;;;;267.27;30.97;;;-2.20;1.00;;;;;;5083474;28;20239;-59
2021/12/21 07:42:17;;;;;;;235.60;30.30;;;-2.20;1.00;;;;;;5100712;28;20404;-58
2021/12/21 07:44:43;;;;;;;142.13;30.20;;;-2.00;1.00;;;;;;5100409;28;20255;-58
2021/12/21 07:47:10;;;;;;;169.07;31.33;;;-2.00;1.00;;;;;;5083939;28;20202;-58
2021/12/21 07:49:38;;;;;;;179.50;28.93;;;-1.80;99.90;;;;;;5083084;28;20264;-58
2021/12/21 07:52:09;;;;;;;155.27;30.23;;;-2.00;37.80;;;;;;5083884;28;20207;-58
2021/12/21 07:54:36;;;;;;;171.80;28.10;;;-2.20;99.90;;;;;;5081607;28;20681;-59
2021/12/21 07:57:06;;;;;;;117.23;26.50;;;-2.20;1.00;;;;;;5077161;28;20282;-59
2021/12/21 07:59:38;;;;;;;178.83;33.20;;;-2.20;99.90;;;;;;5078830;28;20221;-59
2021/12/21 08:02:11;;;;;;;186.00;31.17;;;-2.10;99.90;;;;;;5080543;28;20665;-59
2021/12/21 08:04:39;;;;;;;166.47;29.53;;;-2.10;99.90;;;;;;5080475;28;20195;-59
2021/12/21 08:07:11;;;;;;;156.83;29.60;;;-2.10;99.90;;;;;;5081585;28;20198;-59
2021/12/21 08:09:43;;;;;;;274.17;36.20;;;-2.00;1.00;;;;;;5081948;28;20213;-59
2021/12/21 08:12:17;;;;;;;214.93;29.70;;;-2.00;1.00;;;;;;5081175;28;20273;-59
2021/12/21 08:14:47;;;;;;;139.37;29.47;;;-2.10;99.90;;;;;;5076735;28;20194;-59
2021/12/21 08:17:16;;;;;;;177.87;28.80;;;-2.20;1.00;;;;;;5075489;28;20291;-59
2021/12/21 08:19:44;;;;;;;234.47;30.83;;;-2.10;1.00;;;;;;5073359;28;20583;-59
2021/12/21 08:22:12;;;;;;;205.93;29.37;;;-2.20;1.00;;;;;;5077372;28;20730;-59
2021/12/21 08:24:41;;;;;;;214.47;29.00;;;-2.20;1.00;;;;;;5091361;28;20492;-59
2021/12/21 08:27:08;;;;;;;245.60;28.10;;;-2.20;5.20;;;;;;5074644;28;20182;-58
2021/12/21 08:29:35;;;;;;;175.03;25.90;;;-2.30;1.00;;;;;;5081623;28;20230;-58
2021/12/21 08:32:03;;;;;;;213.67;26.73;;;-2.40;99.90;;;;;;5081092;28;20673;-59
2021/12/21 08:34:30;;;;;;;211.90;28.10;;;-2.30;52.10;;;;;;5080878;28;20205;-60
2021/12/21 08:36:57;;;;;;;148.10;27.03;;;-2.20;99.90;;;;;;5077990;28;20273;-58
2021/12/21 08:39:24;;;;;;;208.93;28.13;;;-2.20;99.90;;;;;;5077817;28;20202;-59
2021/12/21 08:41:57;;;;;;;157.27;27.30;;;-2.20;99.90;;;;;;5078163;28;20224;-58
2021/12/21 08:44:25;;;;;;;94.63;26.40;;;-2.30;1.00;;;;;;5080594;28;20198;-59
2021/12/21 08:46:52;;;;;;;93.00;27.93;;;-2.10;99.90;;;;;;5078027;28;20924;-58
2021/12/21 08:49:19;;;;;;;134.10;28.70;;;-2.00;99.90;;;;;;5094885;28;20621;-60
2021/12/21 08:51:46;;;;;;;117.70;28.47;;;-2.00;99.90;;;;;;5080366;28;20225;-59
2021/12/21 08:54:14;;;;;;;69.63;26.83;;;-1.90;99.90;;;;;;5074810;28;20194;-59
2021/12/21 08:56:41;;;;;;;129.60;28.47;;;-1.70;99.90;;;;;;5080096;28;20208;-59
2021/12/21 08:59:08;;;;;;;123.57;27.03;;;-1.60;99.90;;;;;;5067676;28;20217;-59
2021/12/21 09:01:35;;;;;;;211.57;26.50;;;-1.70;99.90;;;;;;5068514;28;20201;-59
2021/12/21 09:04:02;;;;;;;177.30;26.30;;;-2.00;1.00;;;;;;5058092;28;20218;-60
2021/12/21 09:06:30;;;;;;;137.10;26.03;;;-1.90;1.00;;;;;;5073657;28;20277;-60
2021/12/21 09:08:57;;;;;;;78.70;27.20;;;-1.80;1.00;;;;;;5072372;28;20931;-60
2021/12/21 09:11:24;;;;;;;88.37;29.07;;;-1.50;1.00;;;;;;5080994;28;20202;-60
2021/12/21 09:13:51;;;;;;;132.37;24.57;;;-1.30;99.90;;;;;;5078897;28;20203;-60
2021/12/21 09:16:18;;;;;;;136.67;25.80;;;-1.30;1.00;;;;;;5077404;28;20636;-59
2021/12/21 09:18:46;;;;;;;118.90;29.53;;;-1.30;1.00;;;;;;5097333;28;20266;-59
2021/12/21 09:21:13;;;;;;;118.07;23.73;;;-1.50;99.90;;;;;;5096120;28;20219;-59
2021/12/21 09:23:41;;;;;;;126.77;22.43;;;-1.60;1.00;;;;;;5076780;28;20202;-59
2021/12/21 09:26:13;;;;;;;206.00;25.03;;;-1.90;1.00;;;;;;5097851;28;20239;-59
2021/12/21 09:28:40;;;;;;;127.40;27.93;;;-1.90;1.00;;;;;;5079445;28;20214;-59
2021/12/21 09:31:07;;;;;;;95.00;22.27;;;-1.70;1.00;;;;;;5073926;28;20229;-59
2021/12/21 09:33:34;;;;;;;144.37;22.60;;;-1.70;1.00;;;;;;5077488;28;20302;-59
2021/12/21 09:36:01;;;;;;;140.47;23.67;;;-1.70;5.80;;;;;;5078848;28;20588;-60
2021/12/21 09:38:28;;;;;;;86.73;19.33;;;-1.70;1.00;;;;;;5079861;28;20202;-59
2021/12/21 09:40:55;;;;;;;117.73;23.37;;;-2.00;1.00;;;;;;5081770;28;20211;-59
2021/12/21 09:43:22;;;;;;;47.00;22.50;;;-1.90;1.00;;;;;;5098027;28;20207;-59
2021/12/21 09:45:50;;;;;;;137.67;25.27;;;-1.80;1.00;;;;;;5082419;28;20586;-60
2021/12/21 09:48:17;;;;;;;70.63;19.00;;;-1.60;1.00;;;;;;5081916;28;20202;-60
2021/12/21 09:50:44;;;;;;;56.07;19.67;;;-1.70;99.90;;;;;;5082976;28;20190;-57
2021/12/21 09:53:12;;;;;;;89.97;20.60;;;-1.80;99.90;;;;;;5089391;28;20574;-59
2021/12/21 09:55:43;;;;;;;66.10;21.57;;;-1.80;90.20;;;;;;5084410;28;20182;-59
2021/12/21 09:58:10;;;;;;;81.00;20.30;;;-1.70;99.90;;;;;;5083799;28;20222;-59
2021/12/21 10:00:38;;;;;;;57.10;19.27;;;-1.70;1.00;;;;;;5079094;28;20191;-59
2021/12/21 10:03:07;;;;;;;81.37;18.70;;;-1.60;99.90;;;;;;5081135;28;20216;-58
2021/12/21 10:05:42;;;;;;;64.53;19.07;;;-1.80;1.00;;;;;;5084263;28;20202;-59
2021/12/21 10:08:16;;;;;;;43.00;19.23;;;-1.50;91.50;;;;;;5099003;28;20184;-59
2021/12/21 10:10:45;;;;;;;71.53;18.43;;;-1.30;74.50;;;;;;5084086;28;20606;-59
2021/12/21 10:13:22;;;;;;;140.40;18.97;;;-1.30;1.00;;;;;;5079474;28;20739;-59
2021/12/21 10:15:50;;;;;;;103.77;19.13;;;-1.60;99.90;;;;;;5076484;28;20190;-59
2021/12/21 10:18:23;;;;;;;71.93;18.07;;;-1.70;99.90;;;;;;5083623;28;20689;-59
2021/12/21 10:20:51;;;;;;;55.80;17.37;;;-1.60;1.00;;;;;;5080075;28;20219;-60
2021/12/21 10:23:20;;;;;;;56.47;16.70;;;-1.40;99.90;;;;;;5082338;28;20283;-59
2021/12/21 10:26:03;;;;;;;35.47;16.23;;;-1.40;99.90;;;;;;5096886;28;20198;-59
2021/12/21 10:28:37;;;;;;;37.00;17.50;;;-1.10;1.00;;;;;;5078723;28;20218;-59
2021/12/21 10:31:08;;;;;;;67.20;18.40;;;-1.00;99.90;;;;;;5079543;28;20692;-59
2021/12/21 10:33:36;;;;;;;107.37;17.40;;;-1.00;99.90;;;;;;5080431;28;20198;-59
2021/12/21 10:36:06;;;;;;;90.90;17.00;;;-1.20;99.90;;;;;;5082863;28;20194;-59
2021/12/21 10:38:43;;;;;;;42.53;15.37;;;-1.00;1.00;;;;;;5079406;28;20194;-59
2021/12/21 10:41:15;;;;;;;31.53;16.10;;;-0.90;99.90;;;;;;5080442;28;20209;-59
2021/12/21 10:43:43;;;;;;;93.00;17.23;;;-0.90;99.90;;;;;;5097061;28;20194;-59
2021/12/21 10:46:10;;;;;;;59.87;15.97;;;-0.90;45.90;;;;;;5081141;28;20198;-58
2021/12/21 10:48:46;;;;;;;150.73;17.80;;;-1.10;99.90;;;;;;5080961;28;20206;-58
2021/12/21 10:51:15;;;;;;;86.37;18.00;;;-1.20;99.90;;;;;;5078683;28;20197;-58
2021/12/21 10:53:48;;;;;;;95.10;15.90;;;-1.20;99.90;;;;;;5077375;28;20201;-58
2021/12/21 10:56:17;;;;;;;138.93;19.43;;;-1.30;99.90;;;;;;5083175;28;20700;-59
2021/12/21 10:58:45;;;;;;;68.13;16.80;;;-1.20;99.90;;;;;;5078011;28;20196;-59
2021/12/21 11:01:21;;;;;;;42.47;17.20;;;-1.10;1.00;;;;;;5098348;28;20213;-59
2021/12/21 11:03:51;;;;;;;52.43;16.30;;;-1.00;99.90;;;;;;5078239;28;20772;-60
2021/12/21 11:06:23;;;;;;;45.23;14.93;;;-1.20;99.90;;;;;;5078641;28;20203;-58
2021/12/21 11:08:54;;;;;;;97.07;20.43;;;-1.40;99.90;;;;;;5057781;28;20731;-58
2021/12/21 11:11:35;;;;;;;82.00;18.10;;;-1.30;1.00;;;;;;5076077;28;20209;-58
2021/12/21 11:14:13;;;;;;;95.20;19.50;;;-1.30;1.00;;;;;;5097510;28;20202;-59
2021/12/21 11:16:45;;;;;;;118.73;19.97;;;-1.10;1.00;;;;;;5080060;28;20190;-59
2021/12/21 11:19:14;;;;;;;80.50;20.57;;;-1.10;1.00;;;;;;5060569;28;20206;-59
2021/12/21 11:21:43;;;;;;;69.00;18.77;;;-0.80;1.00;;;;;;5079979;28;20306;-59
2021/12/21 11:24:17;;;;;;;55.73;18.57;;;-0.70;58.50;;;;;;5081775;28;20197;-59
2021/12/21 11:26:47;;;;;;;54.10;17.77;;;-0.80;99.90;;;;;;5078318;28;20214;-59
2021/12/21 11:29:18;;;;;;;104.13;20.03;;;-0.90;99.90;;;;;;5094881;28;20225;-59
2021/12/21 11:31:51;;;;;;;67.13;18.20;;;-1.00;1.00;;;;;;5064549;28;20240;-59
2021/12/21 11:34:21;;;;;;;83.70;19.17;;;-0.90;35.40;;;;;;5081426;28;20193;-59
2021/12/21 11:39:39;;;;;;;47.63;20.93;;;-0.90;1.00;;;;;;5078444;28;20190;-59
2021/12/21 11:42:10;;;;;;;86.40;19.27;;;-0.90;1.00;;;;;;5078708;28;20201;-59
2021/12/21 11:44:55;;;;;;;66.80;18.73;;;-0.70;1.00;;;;;;5074377;28;20214;-59
2021/12/21 11:47:45;;;;;;;50.40;19.70;;;-0.60;1.00;;;;;;5074336;28;20669;-59
2021/12/21 11:50:12;;;;;;;45.70;21.23;;;-0.50;1.00;;;;;;5077503;28;20207;-59
2021/12/21 11:52:54;;;;;;;51.67;20.93;;;-0.30;99.90;;;;;;5075861;28;20866;-58
2021/12/21 11:55:24;;;;;;;74.23;21.17;;;-0.50;99.90;;;;;;5094673;28;20226;-58
2021/12/21 11:57:57;;;;;;;70.00;20.17;;;-0.90;99.90;;;;;;5076976;28;20252;-59
2021/12/21 12:00:32;;;;;;;37.20;20.00;;;-1.00;99.90;;;;;;5077315;28;21842;-59
2021/12/21 12:03:14;;;;;;;53.63;20.87;;;-0.80;99.90;;;;;;5077259;28;20220;-59
2021/12/21 12:05:57;;;;;;;112.77;21.77;;;-0.40;99.90;;;;;;5082282;28;20284;-60
2021/12/21 12:08:27;;;;;;;63.27;21.20;;;-0.60;99.90;;;;;;5068612;28;20194;-59
2021/12/21 12:11:00;;;;;;;67.53;21.67;;;-0.40;99.90;;;;;;5076306;28;20194;-59
2021/12/21 12:13:36;;;;;;;40.97;20.43;;;-0.20;99.90;;;;;;5069941;28;20239;-59
2021/12/21 12:16:12;;;;;;;47.40;23.30;;;-0.30;4.20;;;;;;5080988;28;20313;-59
2021/12/21 12:18:50;;;;;;;39.87;22.03;;;-0.30;1.00;;;;;;5078162;28;20252;-58
2021/12/21 12:21:25;;;;;;;41.10;22.93;;;-0.30;1.00;;;;;;5079690;28;20536;-59
2021/12/21 12:24:01;;;;;;;33.33;22.17;;;-0.20;1.00;;;;;;5079328;28;20292;-58
2021/12/21 12:26:37;;;;;;;37.53;23.40;;;-0.20;1.00;;;;;;5096704;28;20217;-59
2021/12/21 12:29:19;;;;;;;39.67;25.27;;;-0.10;1.00;;;;;;5078971;28;20218;-59
2021/12/21 12:32:07;;;;;;;81.53;40.37;;;0.10;1.00;;;;;;5097092;28;20178;-59
2021/12/21 12:34:38;;;;;;;52.77;24.97;;;0.10;1.00;;;;;;5081083;28;20221;-58
2021/12/21 12:37:14;;;;;;;86.47;25.40;;;0.00;1.00;;;;;;5080322;28;20224;-58
2021/12/21 12:39:43;;;;;;;109.13;26.43;;;-0.30;1.00;;;;;;5082288;28;21032;-58
2021/12/21 12:42:11;;;;;;;136.57;25.80;;;-0.60;27.30;;;;;;5075234;28;20201;-58
2021/12/21 12:44:40;;;;;;;103.17;26.23;;;-0.70;99.90;;;;;;5081514;28;20319;-59
2021/12/21 12:47:11;;;;;;;95.10;27.17;;;-0.50;99.90;;;;;;5079864;28;20187;-58
2021/12/21 12:49:48;;;;;;;82.43;28.87;;;-0.40;99.90;;;;;;5080533;28;20746;-59
2021/12/21 12:52:18;;;;;;;69.70;21.97;;;-0.60;99.90;;;;;;5079144;28;20221;-58
2021/12/21 12:54:52;;;;;;;106.10;24.10;;;-0.80;81.00;;;;;;5077024;28;20198;-58
2021/12/21 12:57:27;;;;;;;128.50;23.93;;;-1.00;99.90;;;;;;5079151;28;20213;-58
2021/12/21 13:00:11;;;;;;;85.57;22.27;;;-1.10;99.90;;;;;;5080158;28;20194;-58
2021/12/21 13:02:49;;;;;;;111.90;26.57;;;-1.20;1.00;;;;;;5080819;28;20209;-58
2021/12/21 13:05:16;;;;;;;61.17;26.73;;;-1.10;1.00;;;;;;5077696;28;20199;-59
2021/12/21 13:07:44;;;;;;;110.90;25.63;;;-0.80;1.00;;;;;;5080287;28;20745;-58
2021/12/21 13:10:12;;;;;;;155.47;27.90;;;-0.70;1.00;;;;;;5058254;28;20254;-58
2021/12/21 13:12:39;;;;;;;58.63;25.57;;;-0.70;1.00;;;;;;5075506;28;20195;-59
2021/12/21 13:15:07;;;;;;;76.93;26.13;;;-0.70;1.00;;;;;;5078746;28;20221;-58
2021/12/21 13:17:35;;;;;;;83.07;27.60;;;-0.70;1.00;;;;;;5095888;28;20194;-60
2021/12/21 13:20:03;;;;;;;135.00;30.03;;;-0.60;1.00;;;;;;5084120;28;20214;-59
2021/12/21 13:22:30;;;;;;;78.57;27.27;;;-0.50;1.00;;;;;;5078404;28;20201;-58
2021/12/21 13:24:57;;;;;;;57.83;26.97;;;-0.70;99.90;;;;;;5096461;28;20203;-58
2021/12/21 13:27:25;;;;;;;145.47;27.50;;;-0.70;1.00;;;;;;5099933;28;20247;-57
2021/12/21 13:29:53;;;;;;;101.57;26.93;;;-0.70;1.00;;;;;;5095355;28;20230;-58
2021/12/21 13:32:21;;;;;;;150.07;26.00;;;-0.70;1.00;;;;;;5096679;28;20222;-58
2021/12/21 13:34:52;;;;;;;114.87;27.23;;;-0.90;1.00;;;;;;5080674;28;20754;-59
2021/12/21 13:37:21;;;;;;;124.73;25.90;;;-0.90;1.00;;;;;;5080239;28;20179;-59
2021/12/21 13:39:58;;;;;;;151.20;30.57;;;-0.80;1.00;;;;;;5063042;28;20259;-58
2021/12/21 13:42:31;;;;;;;183.67;27.13;;;-0.90;1.00;;;;;;5077739;28;20679;-59
2021/12/21 13:45:00;;;;;;;67.23;26.60;;;-0.80;1.00;;;;;;5077307;28;20210;-58
2021/12/21 13:47:37;;;;;;;80.77;26.90;;;-0.80;1.00;;;;;;5080332;28;20194;-59
2021/12/21 13:50:09;;;;;;;87.40;27.47;;;-0.60;1.00;;;;;;5081827;28;20704;-58